sensor_id;sensor_type;location;lat;lon;timestamp;P1;durP1;ratioP1;P2;durP2;ratioP2
6902;SDS011;20232;49.408;8.702;2022-08-16T04:01:50;5.23;;;4.80;;
6902;SDS011;20232;49.408;8.702;2022-08-16T04:04:16;5.80;;;4.57;;
6902;SDS011;20232;49.408;8.702;2022-08-16T04:06:42;4.97;;;4.47;;
6902;SDS011;20232;49.408;8.702;2022-08-16T04:09:07;5.30;;;4.77;;
6902;SDS011;20232;49.408;8.702;2022-08-16T04:11:33;4.93;;;4.27;;
6902;SDS011;20232;49.408;8.702;2022-08-16T04:13:59;4.53;;;4.13;;
6902;SDS011;20232;49.408;8.702;2022-08-16T04:16:25;4.97;;;4.47;;
6902;SDS011;20232;49.408;8.702;2022-08-16T04:18:50;5.47;;;4.63;;
6902;SDS011;20232;49.408;8.702;2022-08-16T04:21:16;5.03;;;4.50;;
6902;SDS011;20232;49.408;8.702;2022-08-16T04:23:42;4.93;;;4.53;;
6902;SDS011;20232;49.408;8.702;2022-08-16T04:26:07;4.77;;;4.37;;
6902;SDS011;20232;49.408;8.702;2022-08-16T04:28:33;4.90;;;4.50;;
6902;SDS011;20232;49.408;8.702;2022-08-16T04:30:59;5.97;;;4.70;;
6902;SDS011;20232;49.408;8.702;2022-08-16T04:33:25;6.07;;;4.90;;
6902;SDS011;20232;49.408;8.702;2022-08-16T04:35:51;7.50;;;5.47;;
6902;SDS011;20232;49.408;8.702;2022-08-16T04:38:18;5.50;;;4.70;;
6902;SDS011;20232;49.408;8.702;2022-08-16T04:40:44;4.90;;;4.40;;
6902;SDS011;20232;49.408;8.702;2022-08-16T04:43:11;5.47;;;4.90;;
6902;SDS011;20232;49.408;8.702;2022-08-16T04:45:39;5.10;;;4.70;;
6902;SDS011;20232;49.408;8.702;2022-08-16T04:48:06;5.37;;;4.50;;
6902;SDS011;20232;49.408;8.702;2022-08-16T04:50:32;5.83;;;4.57;;
6902;SDS011;20232;49.408;8.702;2022-08-16T04:52:58;4.80;;;4.40;;
6902;SDS011;20232;49.408;8.702;2022-08-16T04:55:25;6.17;;;4.53;;
6902;SDS011;20232;49.408;8.702;2022-08-16T04:57:52;5.40;;;4.43;;
6902;SDS011;20232;49.408;8.702;2022-08-16T05:00:20;6.37;;;4.60;;
6902;SDS011;20232;49.408;8.702;2022-08-16T05:02:53;4.90;;;4.30;;
6902;SDS011;20232;49.408;8.702;2022-08-16T05:05:19;4.83;;;4.43;;
6902;SDS011;20232;49.408;8.702;2022-08-16T05:07:46;4.50;;;4.10;;
6902;SDS011;20232;49.408;8.702;2022-08-16T05:10:13;4.70;;;4.30;;
6902;SDS011;20232;49.408;8.702;2022-08-16T05:12:39;4.70;;;4.30;;
6902;SDS011;20232;49.408;8.702;2022-08-16T05:15:04;4.23;;;3.83;;
6902;SDS011;20232;49.408;8.702;2022-08-16T05:17:32;4.10;;;3.80;;
6902;SDS011;20232;49.408;8.702;2022-08-16T05:19:58;5.07;;;4.03;;
6902;SDS011;20232;49.408;8.702;2022-08-16T05:22:24;8.00;;;4.83;;
6902;SDS011;20232;49.408;8.702;2022-08-16T05:24:50;4.37;;;3.97;;
6902;SDS011;20232;49.408;8.702;2022-08-16T05:27:15;4.70;;;4.30;;
6902;SDS011;20232;49.408;8.702;2022-08-16T05:29:41;4.10;;;3.80;;
6902;SDS011;20232;49.408;8.702;2022-08-16T05:32:07;5.33;;;4.10;;
6902;SDS011;20232;49.408;8.702;2022-08-16T05:34:33;6.93;;;4.20;;
6902;SDS011;20232;49.408;8.702;2022-08-16T05:36:59;6.43;;;4.00;;
6902;SDS011;20232;49.408;8.702;2022-08-16T05:39:25;4.57;;;3.90;;
6902;SDS011;20232;49.408;8.702;2022-08-16T05:41:51;5.17;;;4.13;;
6902;SDS011;20232;49.408;8.702;2022-08-16T05:44:19;4.87;;;4.03;;
6902;SDS011;20232;49.408;8.702;2022-08-16T05:46:46;7.47;;;4.77;;
6902;SDS011;20232;49.408;8.702;2022-08-16T05:49:12;4.50;;;4.10;;
6902;SDS011;20232;49.408;8.702;2022-08-16T05:51:40;4.80;;;4.40;;
6902;SDS011;20232;49.408;8.702;2022-08-16T05:54:07;6.27;;;4.40;;
6902;SDS011;20232;49.408;8.702;2022-08-16T05:56:33;4.50;;;4.13;;
6902;SDS011;20232;49.408;8.702;2022-08-16T05:58:59;5.67;;;4.27;;
6902;SDS011;20232;49.408;8.702;2022-08-16T06:01:25;5.00;;;4.30;;
6902;SDS011;20232;49.408;8.702;2022-08-16T06:03:50;4.50;;;4.10;;
6902;SDS011;20232;49.408;8.702;2022-08-16T06:06:16;4.20;;;3.90;;
6902;SDS011;20232;49.408;8.702;2022-08-16T06:08:41;4.77;;;4.27;;
6902;SDS011;20232;49.408;8.702;2022-08-16T06:11:07;4.80;;;4.10;;
6902;SDS011;20232;49.408;8.702;2022-08-16T06:13:33;5.70;;;3.80;;
6902;SDS011;20232;49.408;8.702;2022-08-16T06:16:01;5.83;;;4.00;;
6902;SDS011;20232;49.408;8.702;2022-08-16T06:18:30;4.10;;;3.63;;
6902;SDS011;20232;49.408;8.702;2022-08-16T06:20:56;4.03;;;3.67;;
6902;SDS011;20232;49.408;8.702;2022-08-16T06:23:22;4.33;;;3.93;;
6902;SDS011;20232;49.408;8.702;2022-08-16T06:25:50;5.27;;;4.03;;
6902;SDS011;20232;49.408;8.702;2022-08-16T06:28:16;5.00;;;4.50;;
6902;SDS011;20232;49.408;8.702;2022-08-16T06:30:42;4.30;;;3.90;;
6902;SDS011;20232;49.408;8.702;2022-08-16T06:33:07;4.40;;;4.00;;
6902;SDS011;20232;49.408;8.702;2022-08-16T06:35:34;5.43;;;4.00;;
6902;SDS011;20232;49.408;8.702;2022-08-16T06:38:01;4.73;;;3.90;;
6902;SDS011;20232;49.408;8.702;2022-08-16T06:40:27;4.37;;;3.97;;
6902;SDS011;20232;49.408;8.702;2022-08-16T06:42:53;5.30;;;4.40;;
6902;SDS011;20232;49.408;8.702;2022-08-16T06:45:20;4.10;;;3.70;;
6902;SDS011;20232;49.408;8.702;2022-08-16T06:47:47;4.10;;;3.70;;
6902;SDS011;20232;49.408;8.702;2022-08-16T06:50:13;4.27;;;3.80;;
6902;SDS011;20232;49.408;8.702;2022-08-16T06:52:39;4.20;;;3.80;;
6902;SDS011;20232;49.408;8.702;2022-08-16T06:55:08;3.67;;;3.23;;
6902;SDS011;20232;49.408;8.702;2022-08-16T06:57:35;4.03;;;3.57;;
6902;SDS011;20232;49.408;8.702;2022-08-16T07:00:01;4.30;;;3.90;;
6902;SDS011;20232;49.408;8.702;2022-08-16T07:02:35;5.70;;;4.60;;
6902;SDS011;20232;49.408;8.702;2022-08-16T07:05:01;4.17;;;3.80;;
6902;SDS011;20232;49.408;8.702;2022-08-16T07:07:27;6.20;;;4.20;;
6902;SDS011;20232;49.408;8.702;2022-08-16T07:09:53;6.07;;;4.07;;
6902;SDS011;20232;49.408;8.702;2022-08-16T07:12:19;5.43;;;4.10;;
6902;SDS011;20232;49.408;8.702;2022-08-16T07:14:44;5.13;;;4.50;;
6902;SDS011;20232;49.408;8.702;2022-08-16T07:17:13;6.17;;;4.10;;
6902;SDS011;20232;49.408;8.702;2022-08-16T07:19:39;6.23;;;4.60;;
6902;SDS011;20232;49.408;8.702;2022-08-16T07:22:05;6.57;;;3.97;;
6902;SDS011;20232;49.408;8.702;2022-08-16T07:24:31;5.40;;;4.13;;
6902;SDS011;20232;49.408;8.702;2022-08-16T07:26:57;5.37;;;3.90;;
6902;SDS011;20232;49.408;8.702;2022-08-16T07:29:23;4.20;;;3.80;;
6902;SDS011;20232;49.408;8.702;2022-08-16T07:31:49;5.90;;;4.00;;
6902;SDS011;20232;49.408;8.702;2022-08-16T07:34:15;8.83;;;3.60;;
6902;SDS011;20232;49.408;8.702;2022-08-16T07:36:42;5.47;;;4.13;;
6902;SDS011;20232;49.408;8.702;2022-08-16T07:39:09;6.07;;;3.67;;
6902;SDS011;20232;49.408;8.702;2022-08-16T07:41:35;4.60;;;3.57;;
6902;SDS011;20232;49.408;8.702;2022-08-16T07:44:01;4.03;;;3.63;;
6902;SDS011;20232;49.408;8.702;2022-08-16T07:46:27;5.77;;;3.77;;
6902;SDS011;20232;49.408;8.702;2022-08-16T07:48:53;5.13;;;3.47;;
6902;SDS011;20232;49.408;8.702;2022-08-16T07:51:19;5.57;;;3.60;;
6902;SDS011;20232;49.408;8.702;2022-08-16T07:53:44;4.63;;;3.33;;
6902;SDS011;20232;49.408;8.702;2022-08-16T07:56:15;6.27;;;3.50;;
6902;SDS011;20232;49.408;8.702;2022-08-16T07:58:44;7.07;;;4.07;;
6902;SDS011;20232;49.408;8.702;2022-08-16T08:01:11;4.23;;;3.03;;
6902;SDS011;20232;49.408;8.702;2022-08-16T08:03:37;4.87;;;3.63;;
6902;SDS011;20232;49.408;8.702;2022-08-16T08:06:04;4.13;;;3.10;;
6902;SDS011;20232;49.408;8.702;2022-08-16T08:08:30;3.50;;;3.20;;
6902;SDS011;20232;49.408;8.702;2022-08-16T08:10:56;5.33;;;3.30;;
6902;SDS011;20232;49.408;8.702;2022-08-16T08:13:22;5.77;;;3.27;;
6902;SDS011;20232;49.408;8.702;2022-08-16T08:15:48;5.23;;;3.40;;
6902;SDS011;20232;49.408;8.702;2022-08-16T08:18:13;6.97;;;3.70;;
6902;SDS011;20232;49.408;8.702;2022-08-16T08:20:39;3.77;;;3.40;;
6902;SDS011;20232;49.408;8.702;2022-08-16T08:23:09;5.37;;;3.93;;
6902;SDS011;20232;49.408;8.702;2022-08-16T08:25:37;9.43;;;4.07;;
6902;SDS011;20232;49.408;8.702;2022-08-16T08:28:03;5.60;;;4.27;;
6902;SDS011;20232;49.408;8.702;2022-08-16T08:30:30;6.43;;;3.90;;
6902;SDS011;20232;49.408;8.702;2022-08-16T08:32:56;7.60;;;3.93;;
6902;SDS011;20232;49.408;8.702;2022-08-16T08:35:22;4.63;;;3.63;;
6902;SDS011;20232;49.408;8.702;2022-08-16T08:37:48;6.00;;;3.57;;
6902;SDS011;20232;49.408;8.702;2022-08-16T08:40:14;6.23;;;3.90;;
6902;SDS011;20232;49.408;8.702;2022-08-16T08:42:40;6.23;;;3.87;;
6902;SDS011;20232;49.408;8.702;2022-08-16T08:45:07;4.70;;;3.53;;
6902;SDS011;20232;49.408;8.702;2022-08-16T08:47:35;5.70;;;3.70;;
6902;SDS011;20232;49.408;8.702;2022-08-16T08:50:01;4.17;;;3.60;;
6902;SDS011;20232;49.408;8.702;2022-08-16T08:52:28;4.40;;;3.67;;
6902;SDS011;20232;49.408;8.702;2022-08-16T08:54:53;7.57;;;3.90;;
6902;SDS011;20232;49.408;8.702;2022-08-16T08:57:19;5.37;;;3.23;;
6902;SDS011;20232;49.408;8.702;2022-08-16T08:59:46;6.97;;;3.77;;
6902;SDS011;20232;49.408;8.702;2022-08-16T09:02:12;4.77;;;3.60;;
6902;SDS011;20232;49.408;8.702;2022-08-16T09:04:41;5.37;;;3.60;;
6902;SDS011;20232;49.408;8.702;2022-08-16T09:07:08;5.53;;;4.00;;
6902;SDS011;20232;49.408;8.702;2022-08-16T09:09:34;8.17;;;4.20;;
6902;SDS011;20232;49.408;8.702;2022-08-16T09:11:59;9.17;;;4.40;;
6902;SDS011;20232;49.408;8.702;2022-08-16T09:14:26;7.33;;;4.33;;
6902;SDS011;20232;49.408;8.702;2022-08-16T09:16:52;4.00;;;3.60;;
6902;SDS011;20232;49.408;8.702;2022-08-16T09:19:18;7.23;;;3.40;;
6902;SDS011;20232;49.408;8.702;2022-08-16T09:21:44;5.57;;;4.10;;
6902;SDS011;20232;49.408;8.702;2022-08-16T09:24:10;4.00;;;3.60;;
6902;SDS011;20232;49.408;8.702;2022-08-16T09:26:36;6.00;;;3.80;;
6902;SDS011;20232;49.408;8.702;2022-08-16T09:29:04;6.27;;;3.80;;
6902;SDS011;20232;49.408;8.702;2022-08-16T09:31:30;6.00;;;3.50;;
6902;SDS011;20232;49.408;8.702;2022-08-16T09:33:56;5.93;;;3.70;;
6902;SDS011;20232;49.408;8.702;2022-08-16T09:36:22;3.47;;;3.03;;
6902;SDS011;20232;49.408;8.702;2022-08-16T09:38:48;4.97;;;3.60;;
6902;SDS011;20232;49.408;8.702;2022-08-16T09:41:14;5.90;;;3.90;;
6902;SDS011;20232;49.408;8.702;2022-08-16T09:43:41;4.43;;;3.90;;
6902;SDS011;20232;49.408;8.702;2022-08-16T09:46:07;6.23;;;3.53;;
6902;SDS011;20232;49.408;8.702;2022-08-16T09:48:34;4.80;;;3.67;;
6902;SDS011;20232;49.408;8.702;2022-08-16T09:51:03;8.90;;;3.90;;
6902;SDS011;20232;49.408;8.702;2022-08-16T09:53:29;9.37;;;4.10;;
6902;SDS011;20232;49.408;8.702;2022-08-16T09:55:55;4.57;;;3.90;;
6902;SDS011;20232;49.408;8.702;2022-08-16T09:58:23;5.87;;;3.60;;
6902;SDS011;20232;49.408;8.702;2022-08-16T10:00:50;6.77;;;3.83;;
6902;SDS011;20232;49.408;8.702;2022-08-16T10:03:16;7.10;;;3.83;;
6902;SDS011;20232;49.408;8.702;2022-08-16T10:05:43;4.23;;;3.83;;
6902;SDS011;20232;49.408;8.702;2022-08-16T10:08:09;6.23;;;4.07;;
6902;SDS011;20232;49.408;8.702;2022-08-16T10:10:35;4.57;;;4.10;;
6902;SDS011;20232;49.408;8.702;2022-08-16T10:13:01;6.50;;;4.13;;
6902;SDS011;20232;49.408;8.702;2022-08-16T10:15:36;5.60;;;4.00;;
6902;SDS011;20232;49.408;8.702;2022-08-16T10:18:06;4.57;;;4.00;;
6902;SDS011;20232;49.408;8.702;2022-08-16T10:20:35;5.53;;;4.57;;
6902;SDS011;20232;49.408;8.702;2022-08-16T10:23:03;5.47;;;4.20;;
6902;SDS011;20232;49.408;8.702;2022-08-16T10:25:31;5.87;;;4.30;;
6902;SDS011;20232;49.408;8.702;2022-08-16T10:27:58;6.17;;;3.80;;
6902;SDS011;20232;49.408;8.702;2022-08-16T10:30:24;6.13;;;3.97;;
6902;SDS011;20232;49.408;8.702;2022-08-16T10:32:50;4.40;;;3.80;;
6902;SDS011;20232;49.408;8.702;2022-08-16T10:35:16;6.37;;;3.33;;
6902;SDS011;20232;49.408;8.702;2022-08-16T10:37:42;5.07;;;3.70;;
6902;SDS011;20232;49.408;8.702;2022-08-16T10:40:08;4.43;;;2.90;;
6902;SDS011;20232;49.408;8.702;2022-08-16T10:42:35;3.47;;;3.17;;
6902;SDS011;20232;49.408;8.702;2022-08-16T10:45:00;3.63;;;3.00;;
6902;SDS011;20232;49.408;8.702;2022-08-16T10:47:27;3.33;;;3.00;;
6902;SDS011;20232;49.408;8.702;2022-08-16T10:49:53;10.97;;;3.70;;
6902;SDS011;20232;49.408;8.702;2022-08-16T10:52:19;4.50;;;3.00;;
6902;SDS011;20232;49.408;8.702;2022-08-16T10:54:46;5.57;;;3.93;;
6902;SDS011;20232;49.408;8.702;2022-08-16T10:57:12;5.53;;;2.80;;
6902;SDS011;20232;49.408;8.702;2022-08-16T10:59:38;5.00;;;3.00;;
6902;SDS011;20232;49.408;8.702;2022-08-16T11:02:05;4.43;;;3.00;;
6902;SDS011;20232;49.408;8.702;2022-08-16T11:04:31;5.57;;;3.40;;
6902;SDS011;20232;49.408;8.702;2022-08-16T11:06:57;3.70;;;3.20;;
6902;SDS011;20232;49.408;8.702;2022-08-16T11:09:23;3.43;;;3.13;;
6902;SDS011;20232;49.408;8.702;2022-08-16T11:11:48;4.67;;;3.30;;
6902;SDS011;20232;49.408;8.702;2022-08-16T11:14:14;5.13;;;3.00;;
6902;SDS011;20232;49.408;8.702;2022-08-16T11:16:40;4.87;;;3.00;;
6902;SDS011;20232;49.408;8.702;2022-08-16T11:19:06;4.13;;;2.50;;
6902;SDS011;20232;49.408;8.702;2022-08-16T11:21:32;3.23;;;2.60;;
6902;SDS011;20232;49.408;8.702;2022-08-16T11:24:00;2.90;;;2.63;;
6902;SDS011;20232;49.408;8.702;2022-08-16T11:26:26;5.13;;;2.80;;
6902;SDS011;20232;49.408;8.702;2022-08-16T11:28:52;4.07;;;2.30;;
6902;SDS011;20232;49.408;8.702;2022-08-16T11:31:20;3.57;;;2.33;;
6902;SDS011;20232;49.408;8.702;2022-08-16T11:33:46;2.43;;;2.00;;
6902;SDS011;20232;49.408;8.702;2022-08-16T11:36:11;4.53;;;2.40;;
6902;SDS011;20232;49.408;8.702;2022-08-16T11:38:37;4.10;;;2.20;;
6902;SDS011;20232;49.408;8.702;2022-08-16T11:41:03;2.73;;;2.23;;
6902;SDS011;20232;49.408;8.702;2022-08-16T11:43:33;3.63;;;2.50;;
6902;SDS011;20232;49.408;8.702;2022-08-16T11:46:03;3.13;;;2.50;;
6902;SDS011;20232;49.408;8.702;2022-08-16T11:48:32;3.70;;;2.33;;
6902;SDS011;20232;49.408;8.702;2022-08-16T11:50:59;4.00;;;2.47;;
6902;SDS011;20232;49.408;8.702;2022-08-16T11:53:26;2.57;;;2.20;;
6902;SDS011;20232;49.408;8.702;2022-08-16T11:55:53;4.50;;;2.40;;
6902;SDS011;20232;49.408;8.702;2022-08-16T11:58:20;2.30;;;2.10;;
6902;SDS011;20232;49.408;8.702;2022-08-16T12:00:49;3.77;;;2.07;;
6902;SDS011;20232;49.408;8.702;2022-08-16T12:03:16;6.03;;;2.50;;
6902;SDS011;20232;49.408;8.702;2022-08-16T12:05:42;3.40;;;2.20;;
6902;SDS011;20232;49.408;8.702;2022-08-16T12:08:09;2.70;;;2.37;;
6902;SDS011;20232;49.408;8.702;2022-08-16T12:10:37;3.00;;;2.43;;
6902;SDS011;20232;49.408;8.702;2022-08-16T12:13:05;3.53;;;2.50;;
6902;SDS011;20232;49.408;8.702;2022-08-16T12:15:31;4.00;;;3.00;;
6902;SDS011;20232;49.408;8.702;2022-08-16T12:17:57;4.83;;;2.97;;
6902;SDS011;20232;49.408;8.702;2022-08-16T12:20:24;4.07;;;2.60;;
6902;SDS011;20232;49.408;8.702;2022-08-16T12:22:52;2.97;;;2.43;;
6902;SDS011;20232;49.408;8.702;2022-08-16T12:25:20;4.53;;;2.43;;
6902;SDS011;20232;49.408;8.702;2022-08-16T12:27:48;3.23;;;2.40;;
6902;SDS011;20232;49.408;8.702;2022-08-16T12:30:16;6.73;;;2.63;;
6902;SDS011;20232;49.408;8.702;2022-08-16T12:32:47;2.73;;;2.40;;
6902;SDS011;20232;49.408;8.702;2022-08-16T12:35:14;4.43;;;2.50;;
6902;SDS011;20232;49.408;8.702;2022-08-16T12:37:43;4.03;;;2.47;;
6902;SDS011;20232;49.408;8.702;2022-08-16T12:40:10;4.40;;;2.33;;
6902;SDS011;20232;49.408;8.702;2022-08-16T12:42:38;5.43;;;2.30;;
6902;SDS011;20232;49.408;8.702;2022-08-16T12:45:06;3.20;;;2.30;;
6902;SDS011;20232;49.408;8.702;2022-08-16T12:47:35;5.17;;;2.70;;
6902;SDS011;20232;49.408;8.702;2022-08-16T12:50:20;2.90;;;2.23;;
6902;SDS011;20232;49.408;8.702;2022-08-16T12:52:46;4.80;;;2.43;;
6902;SDS011;20232;49.408;8.702;2022-08-16T12:55:12;4.47;;;2.50;;
6902;SDS011;20232;49.408;8.702;2022-08-16T12:57:39;4.93;;;2.23;;
6902;SDS011;20232;49.408;8.702;2022-08-16T13:00:07;3.63;;;2.37;;
6902;SDS011;20232;49.408;8.702;2022-08-16T13:02:38;2.77;;;2.30;;
6902;SDS011;20232;49.408;8.702;2022-08-16T13:05:05;5.60;;;2.20;;
6902;SDS011;20232;49.408;8.702;2022-08-16T13:07:31;3.10;;;2.67;;
6902;SDS011;20232;49.408;8.702;2022-08-16T13:09:57;5.17;;;2.83;;
6902;SDS011;20232;49.408;8.702;2022-08-16T13:12:32;2.93;;;2.63;;
6902;SDS011;20232;49.408;8.702;2022-08-16T13:15:00;4.03;;;2.90;;
6902;SDS011;20232;49.408;8.702;2022-08-16T13:17:26;3.37;;;2.90;;
6902;SDS011;20232;49.408;8.702;2022-08-16T13:19:52;4.00;;;2.97;;
6902;SDS011;20232;49.408;8.702;2022-08-16T13:22:19;2.80;;;2.60;;
6902;SDS011;20232;49.408;8.702;2022-08-16T13:24:45;2.60;;;2.40;;
6902;SDS011;20232;49.408;8.702;2022-08-16T13:27:11;5.93;;;2.60;;
6902;SDS011;20232;49.408;8.702;2022-08-16T13:29:37;3.00;;;2.47;;
6902;SDS011;20232;49.408;8.702;2022-08-16T13:32:04;4.73;;;2.90;;
6902;SDS011;20232;49.408;8.702;2022-08-16T13:34:30;4.13;;;2.60;;
6902;SDS011;20232;49.408;8.702;2022-08-16T13:36:56;5.63;;;2.57;;
6902;SDS011;20232;49.408;8.702;2022-08-16T13:39:22;3.63;;;2.70;;
6902;SDS011;20232;49.408;8.702;2022-08-16T13:41:47;3.00;;;2.70;;
6902;SDS011;20232;49.408;8.702;2022-08-16T13:44:13;6.33;;;2.67;;
6902;SDS011;20232;49.408;8.702;2022-08-16T13:46:41;5.07;;;2.47;;
6902;SDS011;20232;49.408;8.702;2022-08-16T13:49:06;3.43;;;2.57;;
6902;SDS011;20232;49.408;8.702;2022-08-16T13:51:32;4.17;;;2.50;;
6902;SDS011;20232;49.408;8.702;2022-08-16T13:53:58;2.63;;;2.10;;
6902;SDS011;20232;49.408;8.702;2022-08-16T13:56:28;3.50;;;2.10;;
6902;SDS011;20232;49.408;8.702;2022-08-16T13:58:54;4.10;;;2.60;;
6902;SDS011;20232;49.408;8.702;2022-08-16T14:01:20;2.83;;;2.20;;
6902;SDS011;20232;49.408;8.702;2022-08-16T14:03:45;2.07;;;1.80;;
6902;SDS011;20232;49.408;8.702;2022-08-16T14:06:11;4.00;;;2.10;;
6902;SDS011;20232;49.408;8.702;2022-08-16T14:08:40;3.83;;;2.50;;
6902;SDS011;20232;49.408;8.702;2022-08-16T14:11:07;3.60;;;2.17;;
6902;SDS011;20232;49.408;8.702;2022-08-16T14:13:34;2.93;;;2.03;;
6902;SDS011;20232;49.408;8.702;2022-08-16T14:15:59;3.43;;;2.10;;
6902;SDS011;20232;49.408;8.702;2022-08-16T14:18:25;2.03;;;1.80;;
6902;SDS011;20232;49.408;8.702;2022-08-16T14:20:51;3.33;;;2.20;;
6902;SDS011;20232;49.408;8.702;2022-08-16T14:23:17;2.77;;;2.17;;
6902;SDS011;20232;49.408;8.702;2022-08-16T14:25:43;2.70;;;2.20;;
6902;SDS011;20232;49.408;8.702;2022-08-16T14:28:08;2.33;;;2.13;;
6902;SDS011;20232;49.408;8.702;2022-08-16T14:30:34;3.70;;;2.00;;
6902;SDS011;20232;49.408;8.702;2022-08-16T14:33:00;5.40;;;2.53;;
6902;SDS011;20232;49.408;8.702;2022-08-16T14:35:29;2.23;;;2.13;;
6902;SDS011;20232;49.408;8.702;2022-08-16T14:37:57;5.30;;;2.20;;
6902;SDS011;20232;49.408;8.702;2022-08-16T14:40:23;2.80;;;2.00;;
6902;SDS011;20232;49.408;8.702;2022-08-16T14:42:49;2.10;;;1.90;;
6902;SDS011;20232;49.408;8.702;2022-08-16T14:45:16;4.17;;;2.23;;
6902;SDS011;20232;49.408;8.702;2022-08-16T14:47:45;5.60;;;2.20;;
6902;SDS011;20232;49.408;8.702;2022-08-16T14:50:12;3.37;;;2.03;;
6902;SDS011;20232;49.408;8.702;2022-08-16T14:52:40;3.83;;;2.27;;
6902;SDS011;20232;49.408;8.702;2022-08-16T14:55:08;2.20;;;2.00;;
6902;SDS011;20232;49.408;8.702;2022-08-16T14:57:34;2.70;;;2.10;;
6902;SDS011;20232;49.408;8.702;2022-08-16T15:00:00;4.10;;;2.20;;
6902;SDS011;20232;49.408;8.702;2022-08-16T15:02:26;2.23;;;1.97;;
6902;SDS011;20232;49.408;8.702;2022-08-16T15:04:52;4.37;;;2.30;;
6902;SDS011;20232;49.408;8.702;2022-08-16T15:07:19;4.30;;;2.00;;
6902;SDS011;20232;49.408;8.702;2022-08-16T15:09:45;3.93;;;2.00;;
6902;SDS011;20232;49.408;8.702;2022-08-16T15:12:19;3.80;;;2.20;;
6902;SDS011;20232;49.408;8.702;2022-08-16T15:14:47;2.37;;;2.13;;
6902;SDS011;20232;49.408;8.702;2022-08-16T15:17:16;2.40;;;2.10;;
6902;SDS011;20232;49.408;8.702;2022-08-16T15:19:42;2.50;;;2.30;;
6902;SDS011;20232;49.408;8.702;2022-08-16T15:22:28;2.90;;;2.10;;
6902;SDS011;20232;49.408;8.702;2022-08-16T15:25:00;4.07;;;2.10;;
6902;SDS011;20232;49.408;8.702;2022-08-16T15:27:29;2.30;;;2.10;;
6902;SDS011;20232;49.408;8.702;2022-08-16T15:29:57;2.43;;;2.10;;
6902;SDS011;20232;49.408;8.702;2022-08-16T15:32:23;2.43;;;2.17;;
6902;SDS011;20232;49.408;8.702;2022-08-16T15:34:52;2.93;;;2.30;;
6902;SDS011;20232;49.408;8.702;2022-08-16T15:37:19;2.20;;;2.00;;
6902;SDS011;20232;49.408;8.702;2022-08-16T15:39:44;3.13;;;2.37;;
6902;SDS011;20232;49.408;8.702;2022-08-16T15:42:12;3.13;;;2.47;;
6902;SDS011;20232;49.408;8.702;2022-08-16T15:44:39;4.77;;;2.27;;
6902;SDS011;20232;49.408;8.702;2022-08-16T15:47:07;2.67;;;2.47;;
6902;SDS011;20232;49.408;8.702;2022-08-16T15:49:35;3.97;;;2.70;;
6902;SDS011;20232;49.408;8.702;2022-08-16T15:52:25;2.70;;;2.30;;
6902;SDS011;20232;49.408;8.702;2022-08-16T15:54:53;3.23;;;2.50;;
6902;SDS011;20232;49.408;8.702;2022-08-16T15:57:19;2.97;;;2.40;;
6902;SDS011;20232;49.408;8.702;2022-08-16T15:59:46;2.20;;;2.10;;
6902;SDS011;20232;49.408;8.702;2022-08-16T16:02:13;4.17;;;2.30;;
6902;SDS011;20232;49.408;8.702;2022-08-16T16:04:40;4.27;;;2.37;;
6902;SDS011;20232;49.408;8.702;2022-08-16T16:07:05;3.90;;;2.80;;
6902;SDS011;20232;49.408;8.702;2022-08-16T16:09:31;4.73;;;2.47;;
6902;SDS011;20232;49.408;8.702;2022-08-16T16:11:57;2.63;;;2.20;;
6902;SDS011;20232;49.408;8.702;2022-08-16T16:14:22;2.27;;;2.13;;
6902;SDS011;20232;49.408;8.702;2022-08-16T16:16:48;5.37;;;2.30;;
6902;SDS011;20232;49.408;8.702;2022-08-16T16:19:17;5.50;;;2.40;;
6902;SDS011;20232;49.408;8.702;2022-08-16T16:21:44;5.07;;;2.30;;
6902;SDS011;20232;49.408;8.702;2022-08-16T16:24:11;2.63;;;2.30;;
6902;SDS011;20232;49.408;8.702;2022-08-16T16:26:37;3.50;;;2.30;;
6902;SDS011;20232;49.408;8.702;2022-08-16T16:29:03;3.50;;;2.40;;
6902;SDS011;20232;49.408;8.702;2022-08-16T16:31:28;2.80;;;2.20;;
6902;SDS011;20232;49.408;8.702;2022-08-16T16:33:55;2.40;;;2.20;;
6902;SDS011;20232;49.408;8.702;2022-08-16T16:36:25;2.30;;;2.20;;
6902;SDS011;20232;49.408;8.702;2022-08-16T16:38:51;3.73;;;2.57;;
6902;SDS011;20232;49.408;8.702;2022-08-16T16:41:21;4.03;;;2.20;;
6902;SDS011;20232;49.408;8.702;2022-08-16T16:43:50;2.83;;;2.27;;
6902;SDS011;20232;49.408;8.702;2022-08-16T16:46:17;2.77;;;2.40;;
6902;SDS011;20232;49.408;8.702;2022-08-16T16:48:45;3.30;;;2.20;;
6902;SDS011;20232;49.408;8.702;2022-08-16T16:51:12;4.57;;;2.40;;
6902;SDS011;20232;49.408;8.702;2022-08-16T16:53:39;3.20;;;2.40;;
6902;SDS011;20232;49.408;8.702;2022-08-16T16:56:06;5.60;;;2.50;;
6902;SDS011;20232;49.408;8.702;2022-08-16T16:58:34;3.37;;;2.37;;
6902;SDS011;20232;49.408;8.702;2022-08-16T17:01:18;6.33;;;2.80;;
6902;SDS011;20232;49.408;8.702;2022-08-16T17:03:45;4.07;;;2.30;;
6902;SDS011;20232;49.408;8.702;2022-08-16T17:06:10;2.70;;;2.50;;
6902;SDS011;20232;49.408;8.702;2022-08-16T17:08:37;4.97;;;3.00;;
6902;SDS011;20232;49.408;8.702;2022-08-16T17:11:03;4.60;;;3.20;;
6902;SDS011;20232;49.408;8.702;2022-08-16T17:13:29;3.73;;;3.00;;
6902;SDS011;20232;49.408;8.702;2022-08-16T17:15:56;5.37;;;3.10;;
6902;SDS011;20232;49.408;8.702;2022-08-16T17:18:22;6.30;;;2.90;;
6902;SDS011;20232;49.408;8.702;2022-08-16T17:20:48;2.93;;;2.53;;
6902;SDS011;20232;49.408;8.702;2022-08-16T17:23:16;3.67;;;3.00;;
6902;SDS011;20232;49.408;8.702;2022-08-16T17:25:42;5.67;;;3.00;;
6902;SDS011;20232;49.408;8.702;2022-08-16T17:28:08;4.90;;;3.13;;
6902;SDS011;20232;49.408;8.702;2022-08-16T17:30:33;3.40;;;3.10;;
6902;SDS011;20232;49.408;8.702;2022-08-16T17:33:03;3.67;;;2.70;;
6902;SDS011;20232;49.408;8.702;2022-08-16T17:35:32;4.23;;;3.10;;
6902;SDS011;20232;49.408;8.702;2022-08-16T17:37:59;6.10;;;3.10;;
6902;SDS011;20232;49.408;8.702;2022-08-16T17:40:30;5.50;;;3.10;;
6902;SDS011;20232;49.408;8.702;2022-08-16T17:42:58;4.83;;;3.10;;
6902;SDS011;20232;49.408;8.702;2022-08-16T17:45:25;3.50;;;2.90;;
6902;SDS011;20232;49.408;8.702;2022-08-16T17:47:51;4.20;;;3.20;;
6902;SDS011;20232;49.408;8.702;2022-08-16T17:50:17;3.30;;;3.00;;
6902;SDS011;20232;49.408;8.702;2022-08-16T17:52:50;6.70;;;3.30;;
6902;SDS011;20232;49.408;8.702;2022-08-16T17:55:22;4.27;;;2.87;;
6902;SDS011;20232;49.408;8.702;2022-08-16T17:57:50;3.40;;;3.03;;
6902;SDS011;20232;49.408;8.702;2022-08-16T18:00:16;4.63;;;3.17;;
6902;SDS011;20232;49.408;8.702;2022-08-16T18:02:44;3.47;;;2.97;;
6902;SDS011;20232;49.408;8.702;2022-08-16T18:05:10;2.90;;;2.70;;
6902;SDS011;20232;49.408;8.702;2022-08-16T18:07:39;4.83;;;3.10;;
6902;SDS011;20232;49.408;8.702;2022-08-16T18:10:06;2.93;;;2.70;;
6902;SDS011;20232;49.408;8.702;2022-08-16T18:12:32;3.37;;;3.03;;
6902;SDS011;20232;49.408;8.702;2022-08-16T18:14:58;3.33;;;2.60;;
6902;SDS011;20232;49.408;8.702;2022-08-16T18:17:25;3.37;;;2.80;;
6902;SDS011;20232;49.408;8.702;2022-08-16T18:19:51;4.37;;;3.13;;
6902;SDS011;20232;49.408;8.702;2022-08-16T18:22:21;3.67;;;3.30;;
6902;SDS011;20232;49.408;8.702;2022-08-16T18:24:51;3.40;;;3.10;;
6902;SDS011;20232;49.408;8.702;2022-08-16T18:27:17;7.10;;;3.27;;
6902;SDS011;20232;49.408;8.702;2022-08-16T18:29:45;4.77;;;3.50;;
6902;SDS011;20232;49.408;8.702;2022-08-16T18:32:13;4.53;;;4.00;;
6902;SDS011;20232;49.408;8.702;2022-08-16T18:34:39;4.57;;;3.60;;
6902;SDS011;20232;49.408;8.702;2022-08-16T18:37:05;4.57;;;3.17;;
6902;SDS011;20232;49.408;8.702;2022-08-16T18:39:32;4.53;;;2.93;;
6902;SDS011;20232;49.408;8.702;2022-08-16T18:42:04;3.30;;;3.00;;
6902;SDS011;20232;49.408;8.702;2022-08-16T18:44:36;3.30;;;3.00;;
6902;SDS011;20232;49.408;8.702;2022-08-16T18:47:03;5.40;;;3.33;;
6902;SDS011;20232;49.408;8.702;2022-08-16T18:49:29;5.13;;;3.20;;
6902;SDS011;20232;49.408;8.702;2022-08-16T18:51:58;5.07;;;3.30;;
6902;SDS011;20232;49.408;8.702;2022-08-16T18:54:25;3.60;;;3.30;;
6902;SDS011;20232;49.408;8.702;2022-08-16T18:56:52;4.87;;;3.40;;
6902;SDS011;20232;49.408;8.702;2022-08-16T18:59:18;3.40;;;3.10;;